Time,TemperatureF,DewpointF,PressureIn,WindDirection,WindDirectionDegrees,WindSpeedMPH,WindSpeedGustMPH,Humidity,HourlyPrecipIn,Conditions,Clouds,dailyrainin,SoftwareType,DateUTC
2013-06-13 00:00:00,47.3,41.4,29.77,WNW,282,0.0,0.0,80,0.00,,,0.00,Wunderground v.1.13,2013-06-13 04:00:00,
2013-06-13 00:10:00,46.8,41.0,29.77,WNW,282,0.0,0.0,80,0.00,,,0.00,Wunderground v.1.13,2013-06-13 04:10:00,
2013-06-13 00:20:00,46.4,41.2,29.77,WNW,282,0.0,0.0,82,0.00,,,0.00,Wunderground v.1.13,2013-06-13 04:20:00,
2013-06-13 00:30:00,46.2,40.7,29.77,WNW,282,0.0,0.0,81,0.00,,,0.00,Wunderground v.1.13,2013-06-13 04:30:00,
2013-06-13 00:40:00,46.2,40.4,29.77,WNW,282,0.0,0.0,80,0.00,,,0.00,Wunderground v.1.13,2013-06-13 04:40:00,
2013-06-13 00:50:00,46.0,40.2,29.77,WNW,282,0.0,0.0,80,0.00,,,0.00,Wunderground v.1.13,2013-06-13 04:50:00,
2013-06-13 01:00:00,45.7,40.2,29.77,WNW,282,0.0,0.0,81,0.00,,,0.00,Wunderground v.1.13,2013-06-13 05:00:00,
2013-06-13 01:10:00,45.1,39.9,29.77,WNW,282,0.0,0.0,82,0.00,,,0.00,Wunderground v.1.13,2013-06-13 05:10:00,
2013-06-13 01:20:00,44.4,39.6,29.77,WNW,282,0.0,0.0,83,0.00,,,0.00,Wunderground v.1.13,2013-06-13 05:20:00,
2013-06-13 01:30:00,43.7,38.9,29.77,WNW,282,0.0,0.0,83,0.00,,,0.00,Wunderground v.1.13,2013-06-13 05:30:00,
2013-06-13 01:40:00,43.3,39.4,29.77,WNW,282,0.0,0.0,86,0.00,,,0.00,Wunderground v.1.13,2013-06-13 05:40:00,
2013-06-13 01:50:00,42.7,39.4,29.77,WNW,282,0.0,0.0,88,0.00,,,0.00,Wunderground v.1.13,2013-06-13 05:50:00,
2013-06-13 02:00:00,42.2,39.5,29.77,WNW,282,0.0,0.0,90,0.00,,,0.00,Wunderground v.1.13,2013-06-13 06:00:00,
2013-06-13 02:10:00,41.7,39.0,29.77,WNW,282,0.0,0.0,90,0.00,,,0.00,Wunderground v.1.13,2013-06-13 06:10:00,
2013-06-13 02:20:00,41.1,39.0,29.77,WNW,282,0.0,0.0,92,0.00,,,0.00,Wunderground v.1.13,2013-06-13 06:20:00,
2013-06-13 02:30:00,40.6,38.5,29.76,WNW,282,0.0,0.0,92,0.00,,,0.00,Wunderground v.1.13,2013-06-13 06:30:00,
2013-06-13 02:40:00,40.3,38.4,29.77,WNW,282,0.0,0.0,93,0.00,,,0.00,Wunderground v.1.13,2013-06-13 06:40:00,
2013-06-13 02:50:00,40.1,38.0,29.77,WNW,282,0.0,0.0,92,0.00,,,0.00,Wunderground v.1.13,2013-06-13 06:50:00,
2013-06-13 03:00:00,39.6,37.7,29.76,WNW,282,0.0,0.0,93,0.00,,,0.00,Wunderground v.1.13,2013-06-13 07:00:00,
2013-06-13 03:10:00,39.2,37.6,29.77,WNW,282,0.0,0.0,94,0.00,,,0.00,Wunderground v.1.13,2013-06-13 07:10:00,
2013-06-13 03:20:00,38.9,37.3,29.76,WNW,282,0.0,0.0,94,0.00,,,0.00,Wunderground v.1.13,2013-06-13 07:20:00,
2013-06-13 03:30:00,38.7,37.1,29.77,WNW,282,0.0,0.0,94,0.00,,,0.00,Wunderground v.1.13,2013-06-13 07:30:00,
2013-06-13 03:40:00,38.3,36.7,29.77,WNW,282,0.0,0.0,94,0.00,,,0.00,Wunderground v.1.13,2013-06-13 07:40:00,
2013-06-13 03:50:00,37.9,36.3,29.77,WNW,282,0.0,0.0,94,0.00,,,0.00,Wunderground v.1.13,2013-06-13 07:50:00,
2013-06-13 04:00:00,37.8,36.5,29.77,WNW,282,0.0,0.0,95,0.00,,,0.00,Wunderground v.1.13,2013-06-13 08:00:00,
2013-06-13 04:10:00,37.6,36.3,29.77,WNW,282,0.0,0.0,95,0.00,,,0.00,Wunderground v.1.13,2013-06-13 08:10:00,
2013-06-13 04:20:00,37.5,36.5,29.78,WNW,282,0.0,0.0,96,0.00,,,0.00,Wunderground v.1.13,2013-06-13 08:20:00,
2013-06-13 04:30:00,37.4,36.4,29.78,WNW,282,0.0,0.0,96,0.00,,,0.00,Wunderground v.1.13,2013-06-13 08:30:00,
2013-06-13 04:40:00,37.4,36.4,29.78,WNW,282,0.0,0.0,96,0.00,,,0.00,Wunderground v.1.13,2013-06-13 08:40:00,
2013-06-13 04:50:00,37.8,37.0,29.79,WNW,282,0.0,0.0,97,0.00,,,0.00,Wunderground v.1.13,2013-06-13 08:50:00,
2013-06-13 05:00:00,38.3,37.5,29.79,WNW,282,0.0,0.0,97,0.00,,,0.00,Wunderground v.1.13,2013-06-13 09:00:00,
2013-06-13 05:10:00,38.6,37.8,29.80,WNW,282,0.0,0.0,97,0.00,,,0.00,Wunderground v.1.13,2013-06-13 09:10:00,
2013-06-13 05:20:00,38.6,37.8,29.80,WNW,282,0.0,0.0,97,0.00,,,0.00,Wunderground v.1.13,2013-06-13 09:20:00,
2013-06-13 05:30:00,38.7,37.9,29.80,WNW,282,0.0,0.0,97,0.00,,,0.00,Wunderground v.1.13,2013-06-13 09:30:00,
2013-06-13 05:40:00,39.0,38.5,29.80,WNW,282,0.0,0.0,98,0.00,,,0.00,Wunderground v.1.13,2013-06-13 09:40:00,
2013-06-13 05:50:00,39.4,38.9,29.81,WNW,282,0.0,0.0,98,0.00,,,0.00,Wunderground v.1.13,2013-06-13 09:50:00,
2013-06-13 06:00:00,39.7,39.2,29.81,WNW,282,0.0,0.0,98,0.00,,,0.00,Wunderground v.1.13,2013-06-13 10:00:00,
2013-06-13 06:10:00,40.2,39.7,29.82,WNW,282,0.0,0.0,98,0.00,,,0.00,Wunderground v.1.13,2013-06-13 10:10:00,
2013-06-13 06:20:00,40.9,40.4,29.82,WNW,282,0.0,0.0,98,0.00,,,0.00,Wunderground v.1.13,2013-06-13 10:20:00,
2013-06-13 06:30:00,41.6,40.8,29.83,WNW,282,0.0,0.0,97,0.00,,,0.00,Wunderground v.1.13,2013-06-13 10:30:00,
2013-06-13 06:40:00,42.9,41.0,29.82,WNW,282,0.0,0.0,93,0.00,,,0.00,Wunderground v.1.13,2013-06-13 10:40:00,
2013-06-13 06:50:00,44.1,41.4,29.82,WNW,282,0.0,0.0,90,0.00,,,0.00,Wunderground v.1.13,2013-06-13 10:50:00,
2013-06-13 07:00:00,45.1,41.5,29.83,WNW,282,0.0,0.0,87,0.00,,,0.00,Wunderground v.1.13,2013-06-13 11:00:00,
2013-06-13 07:10:00,46.9,42.0,29.83,WNW,282,0.0,0.0,83,0.00,,,0.00,Wunderground v.1.13,2013-06-13 11:10:00,
2013-06-13 07:20:00,48.0,40.8,29.83,WNW,282,0.0,0.0,76,0.00,,,0.00,Wunderground v.1.13,2013-06-13 11:20:00,
2013-06-13 07:30:00,48.9,41.3,29.83,WNW,282,0.0,0.0,75,0.00,,,0.00,Wunderground v.1.13,2013-06-13 11:30:00,
2013-06-13 07:40:00,50.4,42.1,29.83,WNW,282,0.0,0.0,73,0.00,,,0.00,Wunderground v.1.13,2013-06-13 11:40:00,
2013-06-13 07:50:00,52.5,42.6,29.83,WNW,282,0.0,1.0,69,0.00,,,0.00,Wunderground v.1.13,2013-06-13 11:50:00,
2013-06-13 08:00:00,54.0,42.9,29.82,South,188,0.0,1.0,66,0.00,,,0.00,Wunderground v.1.13,2013-06-13 12:00:00,
2013-06-13 08:10:00,55.3,43.3,29.83,South,184,0.0,0.0,64,0.00,,,0.00,Wunderground v.1.13,2013-06-13 12:10:00,
2013-06-13 08:20:00,56.1,42.8,29.83,SSW,207,1.0,1.0,61,0.00,,,0.00,Wunderground v.1.13,2013-06-13 12:20:00,
2013-06-13 08:30:00,57.3,42.6,29.83,South,186,1.0,1.0,58,0.00,,,0.00,Wunderground v.1.13,2013-06-13 12:30:00,
2013-06-13 08:40:00,58.1,44.3,29.83,South,171,1.0,1.0,60,0.00,,,0.00,Wunderground v.1.13,2013-06-13 12:40:00,
2013-06-13 08:50:00,59.1,44.8,29.83,SE,129,1.0,3.0,59,0.00,,,0.00,Wunderground v.1.13,2013-06-13 12:50:00,
2013-06-13 09:00:00,59.8,45.0,29.82,SE,142,1.0,1.0,58,0.00,,,0.00,Wunderground v.1.13,2013-06-13 13:00:00,
2013-06-13 09:10:00,61.0,45.2,29.82,SSE,161,2.0,5.0,56,0.00,,,0.00,Wunderground v.1.13,2013-06-13 13:10:00,
2013-06-13 09:20:00,61.7,44.4,29.81,West,269,1.0,1.0,53,0.00,,,0.00,Wunderground v.1.13,2013-06-13 13:20:00,
2013-06-13 09:30:00,63.2,46.3,29.81,SW,224,1.0,2.0,54,0.00,,,0.00,Wunderground v.1.13,2013-06-13 13:30:00,
2013-06-13 09:40:00,64.2,44.1,29.81,SSE,157,1.0,1.0,48,0.00,,,0.00,Wunderground v.1.13,2013-06-13 13:40:00,
2013-06-13 09:50:00,64.5,43.3,29.81,West,273,2.0,2.0,46,0.00,,,0.00,Wunderground v.1.13,2013-06-13 13:50:00,
2013-06-13 10:00:00,65.0,44.3,29.80,SW,222,1.0,1.0,47,0.00,,,0.00,Wunderground v.1.13,2013-06-13 14:00:00,
2013-06-13 10:10:00,65.6,45.4,29.80,SSW,193,1.0,1.0,48,0.00,,,0.00,Wunderground v.1.13,2013-06-13 14:10:00,
2013-06-13 10:20:00,66.1,43.5,29.79,WSW,244,1.0,2.0,44,0.00,,,0.00,Wunderground v.1.13,2013-06-13 14:20:00,
2013-06-13 10:30:00,66.5,44.5,29.79,SE,132,2.0,2.0,45,0.00,,,0.00,Wunderground v.1.13,2013-06-13 14:30:00,
2013-06-13 10:40:00,67.0,43.1,29.78,SSE,163,2.0,2.0,42,0.00,,,0.00,Wunderground v.1.13,2013-06-13 14:40:00,
2013-06-13 10:50:00,68.1,43.5,29.78,SSE,165,1.0,3.0,41,0.00,,,0.00,Wunderground v.1.13,2013-06-13 14:50:00,
2013-06-13 11:00:00,68.5,46.3,29.78,SE,128,2.0,2.0,45,0.00,,,0.00,Wunderground v.1.13,2013-06-13 15:00:00,
2013-06-13 11:10:00,68.9,44.2,29.77,WNW,288,1.0,1.0,41,0.00,,,0.00,Wunderground v.1.13,2013-06-13 15:10:00,
2013-06-13 11:20:00,69.0,43.7,29.77,NW,324,3.0,3.0,40,0.00,,,0.00,Wunderground v.1.13,2013-06-13 15:20:00,
2013-06-13 11:30:00,69.5,44.8,29.77,WNW,300,1.0,1.0,41,0.00,,,0.00,Wunderground v.1.13,2013-06-13 15:30:00,
2013-06-13 11:40:00,70.0,42.5,29.77,NW,306,2.0,2.0,37,0.00,,,0.00,Wunderground v.1.13,2013-06-13 15:40:00,
2013-06-13 11:50:00,70.5,45.0,29.77,SSW,204,1.0,3.0,40,0.00,,,0.00,Wunderground v.1.13,2013-06-13 15:50:00,
2013-06-13 12:00:00,70.8,43.2,29.76,ESE,114,1.0,1.0,37,0.00,,,0.00,Wunderground v.1.13,2013-06-13 16:00:00,
2013-06-13 12:10:00,70.1,44.6,29.76,SE,139,1.0,1.0,40,0.00,,,0.00,Wunderground v.1.13,2013-06-13 16:10:00,
2013-06-13 12:20:00,70.2,44.1,29.76,NNW,327,1.0,5.0,39,0.00,,,0.00,Wunderground v.1.13,2013-06-13 16:20:00,
2013-06-13 12:30:00,70.2,43.4,29.76,SW,227,2.0,2.0,38,0.00,,,0.00,Wunderground v.1.13,2013-06-13 16:30:00,
2013-06-13 12:40:00,70.5,46.9,29.75,South,173,1.0,1.0,43,0.00,,,0.00,Wunderground v.1.13,2013-06-13 16:40:00,
2013-06-13 12:50:00,70.7,44.5,29.75,West,269,1.0,2.0,39,0.00,,,0.00,Wunderground v.1.13,2013-06-13 16:50:00,
2013-06-13 13:00:00,70.3,43.5,29.75,NW,317,1.0,1.0,38,0.00,,,0.00,Wunderground v.1.13,2013-06-13 17:00:00,
2013-06-13 13:10:00,69.8,43.7,29.75,NNW,333,1.0,1.0,39,0.00,,,0.00,Wunderground v.1.13,2013-06-13 17:10:00,
2013-06-13 13:20:00,69.8,43.7,29.75,NNW,331,1.0,1.0,39,0.00,,,0.00,Wunderground v.1.13,2013-06-13 17:20:00,
2013-06-13 13:30:00,70.7,43.8,29.74,WSW,253,0.0,0.0,38,0.00,,,0.00,Wunderground v.1.13,2013-06-13 17:30:00,
2013-06-13 13:40:00,70.9,45.4,29.74,WSW,253,0.0,0.0,40,0.00,,,0.00,Wunderground v.1.13,2013-06-13 17:40:00,
2013-06-13 13:50:00,70.8,41.0,29.74,SSW,209,1.0,1.0,34,0.00,,,0.00,Wunderground v.1.13,2013-06-13 17:50:00,
2013-06-13 14:00:00,70.6,43.7,29.74,SE,140,1.0,1.0,38,0.00,,,0.00,Wunderground v.1.13,2013-06-13 18:00:00,
2013-06-13 14:10:00,70.5,43.7,29.74,SE,129,1.0,1.0,38,0.00,,,0.00,Wunderground v.1.13,2013-06-13 18:10:00,
2013-06-13 14:20:00,71.8,44.1,29.73,East,94,0.0,0.0,37,0.00,,,0.00,Wunderground v.1.13,2013-06-13 18:20:00,
2013-06-13 14:30:00,72.4,42.4,29.73,SSE,161,1.0,3.0,34,0.00,,,0.00,Wunderground v.1.13,2013-06-13 18:30:00,
2013-06-13 14:40:00,72.8,44.3,29.73,NNE,24,1.0,1.0,36,0.00,,,0.00,Wunderground v.1.13,2013-06-13 18:40:00,
2013-06-13 14:50:00,73.7,42.8,29.72,South,186,1.0,1.0,33,0.00,,,0.00,Wunderground v.1.13,2013-06-13 18:50:00,
2013-06-13 15:00:00,73.6,45.7,29.72,SSE,152,0.0,0.0,37,0.00,,,0.00,Wunderground v.1.13,2013-06-13 19:00:00,
2013-06-13 15:10:00,73.3,44.0,29.72,WSW,247,1.0,1.0,35,0.00,,,0.00,Wunderground v.1.13,2013-06-13 19:10:00,
2013-06-13 15:20:00,73.2,44.6,29.72,NW,308,1.0,1.0,36,0.00,,,0.00,Wunderground v.1.13,2013-06-13 19:20:00,
2013-06-13 15:30:00,74.0,42.3,29.71,NW,315,1.0,1.0,32,0.00,,,0.00,Wunderground v.1.13,2013-06-13 19:30:00,
2013-06-13 15:40:00,74.3,40.8,29.71,South,185,1.0,1.0,30,0.00,,,0.00,Wunderground v.1.13,2013-06-13 19:40:00,
2013-06-13 15:50:00,74.0,44.6,29.71,WNW,286,1.0,1.0,35,0.00,,,0.00,Wunderground v.1.13,2013-06-13 19:50:00,
2013-06-13 16:00:00,74.2,41.6,29.70,WSW,240,1.0,1.0,31,0.00,,,0.00,Wunderground v.1.13,2013-06-13 20:00:00,
2013-06-13 16:10:00,74.1,38.9,29.70,North,5,1.0,1.0,28,0.00,,,0.00,Wunderground v.1.13,2013-06-13 20:10:00,
2013-06-13 16:20:00,74.6,44.4,29.70,SW,217,1.0,1.0,34,0.00,,,0.00,Wunderground v.1.13,2013-06-13 20:20:00,
2013-06-13 16:30:00,74.8,43.8,29.70,NNW,340,1.0,1.0,33,0.00,,,0.00,Wunderground v.1.13,2013-06-13 20:30:00,
2013-06-13 16:40:00,75.5,41.9,29.70,NW,317,0.0,0.0,30,0.00,,,0.00,Wunderground v.1.13,2013-06-13 20:40:00,
2013-06-13 16:50:00,75.7,42.9,29.70,NW,313,0.0,2.0,31,0.00,,,0.00,Wunderground v.1.13,2013-06-13 20:50:00,
2013-06-13 17:00:00,74.9,39.6,29.70,NW,323,1.0,1.0,28,0.00,,,0.00,Wunderground v.1.13,2013-06-13 21:00:00,
2013-06-13 17:10:00,74.6,40.2,29.69,NW,325,0.0,0.0,29,0.00,,,0.00,Wunderground v.1.13,2013-06-13 21:10:00,
2013-06-13 17:20:00,74.0,40.6,29.69,WNW,293,0.0,0.0,30,0.00,,,0.00,Wunderground v.1.13,2013-06-13 21:20:00,
2013-06-13 17:30:00,73.2,42.4,29.69,WNW,293,0.0,0.0,33,0.00,,,0.00,Wunderground v.1.13,2013-06-13 21:30:00,
2013-06-13 17:40:00,72.5,41.0,29.69,WNW,293,0.0,0.0,32,0.00,,,0.00,Wunderground v.1.13,2013-06-13 21:40:00,
2013-06-13 17:50:00,71.6,43.9,29.70,WNW,293,0.0,0.0,37,0.00,,,0.00,Wunderground v.1.13,2013-06-13 21:50:00,
2013-06-13 18:00:00,71.7,52.1,29.70,WNW,293,0.0,0.0,50,0.00,,,0.00,Wunderground v.1.13,2013-06-13 22:00:00,
2013-06-13 18:10:00,71.7,44.7,29.70,WNW,293,0.0,0.0,38,0.00,,,0.00,Wunderground v.1.13,2013-06-13 22:10:00,
2013-06-13 18:20:00,70.9,49.1,29.70,WNW,293,0.0,0.0,46,0.00,,,0.00,Wunderground v.1.13,2013-06-13 22:20:00,
2013-06-13 18:30:00,69.8,51.4,29.70,WNW,293,0.0,0.0,52,0.00,,,0.00,Wunderground v.1.13,2013-06-13 22:30:00,
2013-06-13 18:40:00,68.8,51.0,29.71,WNW,293,0.0,0.0,53,0.00,,,0.00,Wunderground v.1.13,2013-06-13 22:40:00,
2013-06-13 18:50:00,68.9,52.1,29.71,WNW,293,0.0,0.0,55,0.00,,,0.00,Wunderground v.1.13,2013-06-13 22:50:00,
2013-06-13 19:00:00,69.0,50.1,29.71,WNW,293,0.0,0.0,51,0.00,,,0.00,Wunderground v.1.13,2013-06-13 23:00:00,
2013-06-13 19:10:00,69.1,50.7,29.71,WNW,293,0.0,0.0,52,0.00,,,0.00,Wunderground v.1.13,2013-06-13 23:10:00,
2013-06-13 19:20:00,68.3,50.5,29.71,WNW,293,0.0,0.0,53,0.00,,,0.00,Wunderground v.1.13,2013-06-13 23:20:00,
2013-06-13 19:30:00,67.2,51.0,29.71,WNW,293,0.0,0.0,56,0.00,,,0.00,Wunderground v.1.13,2013-06-13 23:30:00,
2013-06-13 19:40:00,65.8,52.0,29.72,WNW,293,0.0,0.0,61,0.00,,,0.00,Wunderground v.1.13,2013-06-13 23:40:00,
2013-06-13 19:50:00,64.1,49.9,29.72,WNW,293,0.0,0.0,60,0.00,,,0.00,Wunderground v.1.13,2013-06-13 23:50:00,
2013-06-13 20:00:00,62.5,50.6,29.72,WNW,293,0.0,0.0,65,0.00,,,0.00,Wunderground v.1.13,2013-06-14 00:00:00,
2013-06-13 20:10:00,60.9,49.9,29.72,WNW,293,0.0,0.0,67,0.00,,,0.00,Wunderground v.1.13,2013-06-14 00:10:00,
2013-06-13 20:20:00,59.2,50.5,29.72,WNW,293,0.0,0.0,73,0.00,,,0.00,Wunderground v.1.13,2013-06-14 00:20:00,
2013-06-13 20:30:00,58.0,49.4,29.71,WNW,293,0.0,0.0,73,0.00,,,0.00,Wunderground v.1.13,2013-06-14 00:30:00,
2013-06-13 20:50:00,55.6,49.2,29.72,WNW,293,0.0,0.0,79,0.00,,,0.00,Wunderground v.1.13,2013-06-14 00:50:00,
2013-06-13 21:00:00,54.6,48.9,29.72,WNW,293,0.0,0.0,81,0.00,,,0.00,Wunderground v.1.13,2013-06-14 01:00:00,
2013-06-13 21:10:00,54.2,48.8,29.72,WNW,293,0.0,0.0,82,0.00,,,0.00,Wunderground v.1.13,2013-06-14 01:10:00,
2013-06-13 21:20:00,54.0,48.3,29.72,WNW,293,0.0,0.0,81,0.00,,,0.00,Wunderground v.1.13,2013-06-14 01:20:00,
2013-06-13 21:30:00,54.4,48.7,29.72,WNW,293,0.0,0.0,81,0.00,,,0.00,Wunderground v.1.13,2013-06-14 01:30:00,
2013-06-13 21:40:00,54.6,48.6,29.72,WNW,293,0.0,0.0,80,0.00,,,0.00,Wunderground v.1.13,2013-06-14 01:40:00,
2013-06-13 22:00:00,54.6,48.9,29.72,WNW,293,0.0,0.0,81,0.00,,,0.00,Wunderground v.1.13,2013-06-14 02:00:00,
2013-06-13 22:10:00,54.4,48.7,29.72,WNW,293,0.0,0.0,81,0.00,,,0.00,Wunderground v.1.13,2013-06-14 02:10:00,
2013-06-13 22:20:00,54.4,48.7,29.72,WNW,293,0.0,0.0,81,0.00,,,0.00,Wunderground v.1.13,2013-06-14 02:20:00,
2013-06-13 22:30:00,53.7,48.7,29.72,WNW,293,0.0,0.0,83,0.00,,,0.00,Wunderground v.1.13,2013-06-14 02:30:00,
2013-06-13 22:40:00,53.1,49.0,29.72,WNW,293,0.0,0.0,86,0.00,,,0.00,Wunderground v.1.13,2013-06-14 02:40:00,
2013-06-13 22:50:00,52.5,48.4,29.72,WNW,293,0.0,0.0,86,0.00,,,0.00,Wunderground v.1.13,2013-06-14 02:50:00,
2013-06-13 23:00:00,52.1,48.3,29.72,WNW,293,0.0,0.0,87,0.00,,,0.00,Wunderground v.1.13,2013-06-14 03:00:00,
2013-06-13 23:10:00,51.9,48.5,29.71,WNW,293,0.0,0.0,88,0.00,,,0.00,Wunderground v.1.13,2013-06-14 03:10:00,
2013-06-13 23:20:00,51.6,48.2,29.71,WNW,293,0.0,0.0,88,0.00,,,0.00,Wunderground v.1.13,2013-06-14 03:20:00,
2013-06-13 23:30:00,51.2,47.8,29.71,WNW,293,0.0,0.0,88,0.00,,,0.00,Wunderground v.1.13,2013-06-14 03:30:00,
2013-06-13 23:40:00,50.9,47.8,29.71,WNW,293,0.0,0.0,89,0.00,,,0.00,Wunderground v.1.13,2013-06-14 03:40:00,
2013-06-13 23:50:00,50.7,47.9,29.71,WNW,293,0.0,0.0,90,0.00,,,0.00,Wunderground v.1.13,2013-06-14 03:50:00,